Date,TemperatureHighF,TemperatureAvgF,TemperatureLowF,DewpointHighF,DewpointAvgF,DewpointLowF,HumidityHigh,HumidityAvg,HumidityLow,PressureMaxIn,PressureMinIn,WindSpeedMaxMPH,WindSpeedAvgMPH,GustSpeedMaxMPH,PrecipitationSumIn
2013-5-1,82,73,67,67,65,63,91,77,60,29.78,29.60,7,2,0,0.00
2013-5-2,70,51,44,63,45,37,92,81,71,30.20,29.78,18,8,0,0.01
2013-5-3,67,53,36,38,34,31,87,54,29,30.19,29.87,13,5,0,0.00
2013-5-4,74,60,43,47,38,31,84,49,24,29.87,29.74,15,4,0,0.00
2013-5-5,70,58,47,50,45,40,82,61,47,30.02,29.87,13,4,0,0.00
2013-5-6,78,65,49,57,52,46,89,65,47,29.96,29.83,7,1,0,0.00
2013-5-7,86,74,59,59,56,53,87,56,34,29.89,29.74,6,2,0,0.00
2013-5-8,86,76,66,64,58,52,72,53,36,29.80,29.68,18,4,0,0.00
2013-5-9,78,70,65,67,64,57,91,82,53,29.81,29.67,13,3,0,0.29
2013-5-10,83,72,65,68,63,58,93,76,52,29.89,29.70,9,2,0,0.00
2013-5-11,81,71,59,59,55,50,89,60,36,30.01,29.87,11,2,0,0.00
2013-5-12,80,70,57,57,44,37,72,43,24,30.10,29.97,10,2,0,0.00
2013-5-13,89,75,60,56,50,42,56,42,30,30.06,29.92,9,3,0,0.00
2013-5-14,87,77,64,63,58,53,75,53,35,29.97,29.79,14,3,0,0.00
2013-5-15,78,73,63,70,67,60,92,82,65,29.85,29.53,16,5,0,1.03
2013-5-16,82,72,62,72,67,60,92,84,71,29.66,29.55,10,3,0,0.00
2013-5-17,90,81,73,75,73,70,92,78,61,29.66,29.58,12,3,0,0.00
2013-5-18,93,83,74,75,72,69,86,70,53,29.69,29.55,10,4,0,0.00
2013-5-19,89,81,71,73,70,66,86,69,58,29.63,29.47,19,6,0,0.00
2013-5-20,90,82,75,74,71,68,85,70,58,29.62,29.44,15,6,0,0.00
2013-5-21,83,72,60,72,66,58,92,83,69,29.70,29.48,14,4,0,0.88
2013-5-22,86,72,56,66,59,54,93,67,34,29.78,29.66,5,1,0,0.01
2013-5-23,86,78,71,74,70,63,91,77,64,29.88,29.69,9,2,0,0.00
2013-5-24,85,78,68,74,71,64,91,79,68,30.01,29.82,16,2,0,0.18
2013-5-25,83,73,67,74,68,65,92,87,67,30.01,29.86,7,2,0,0.29
2013-5-26,86,79,72,74,71,69,92,78,62,29.90,29.73,12,3,0,0.00
2013-5-27,86,79,72,71,70,68,87,74,60,29.80,29.60,10,4,0,0.00
2013-5-28,85,79,73,71,69,68,85,71,60,29.69,29.51,16,5,0,0.00
2013-5-29,84,77,71,74,71,68,91,82,70,29.63,29.50,24,5,0,0.30
2013-5-30,89,81,74,75,72,70,88,75,60,29.60,29.49,17,6,0,0.00
2013-5-31,90,83,76,75,74,72,89,74,59,29.64,29.48,19,6,0,0.00